sensor_id;sensor_type;location;lat;lon;timestamp;temperature;humidity
57624;SHT30;43448;52.264;20.644;2023-07-31T00:00:00;27.28;50.41
57624;SHT30;43448;52.264;20.644;2023-07-31T00:10:00;27.25;50.13
57624;SHT30;43448;52.264;20.644;2023-07-31T00:20:00;27.21;50.18
57624;SHT30;43448;52.264;20.644;2023-07-31T00:30:00;27.23;50.01
57624;SHT30;43448;52.264;20.644;2023-07-31T00:40:00;27.09;50.30
57624;SHT30;43448;52.264;20.644;2023-07-31T00:50:00;26.89;50.50
57624;SHT30;43448;52.264;20.644;2023-07-31T01:00:00;26.88;50.43
57624;SHT30;43448;52.264;20.644;2023-07-31T01:10:04;26.84;50.55
57624;SHT30;43448;52.264;20.644;2023-07-31T01:20:03;26.88;50.42
57624;SHT30;43448;52.264;20.644;2023-07-31T01:30:06;26.95;50.36
57624;SHT30;43448;52.264;20.644;2023-07-31T01:40:01;26.99;50.01
57624;SHT30;43448;52.264;20.644;2023-07-31T01:50:00;27.05;49.62
57624;SHT30;43448;52.264;20.644;2023-07-31T02:00:00;27.10;49.29
57624;SHT30;43448;52.264;20.644;2023-07-31T02:10:00;27.06;49.24
57624;SHT30;43448;52.264;20.644;2023-07-31T02:20:00;26.99;49.09
57624;SHT30;43448;52.264;20.644;2023-07-31T02:30:00;26.91;49.26
57624;SHT30;43448;52.264;20.644;2023-07-31T02:40:01;26.79;49.53
57624;SHT30;43448;52.264;20.644;2023-07-31T02:50:01;26.74;49.49
57624;SHT30;43448;52.264;20.644;2023-07-31T03:00:01;26.70;49.38
57624;SHT30;43448;52.264;20.644;2023-07-31T03:10:00;26.68;49.30
57624;SHT30;43448;52.264;20.644;2023-07-31T03:20:00;26.70;49.19
57624;SHT30;43448;52.264;20.644;2023-07-31T03:30:02;26.68;49.59
57624;SHT30;43448;52.264;20.644;2023-07-31T03:40:00;26.70;49.83
57624;SHT30;43448;52.264;20.644;2023-07-31T03:50:00;26.72;49.98
57624;SHT30;43448;52.264;20.644;2023-07-31T04:00:01;26.43;49.55
57624;SHT30;43448;52.264;20.644;2023-07-31T04:10:00;25.72;50.70
57624;SHT30;43448;52.264;20.644;2023-07-31T04:20:00;25.42;51.10
57624;SHT30;43448;52.264;20.644;2023-07-31T04:30:00;25.89;51.36
57624;SHT30;43448;52.264;20.644;2023-07-31T04:40:00;26.23;51.31
57624;SHT30;43448;52.264;20.644;2023-07-31T04:50:00;26.41;51.03
57624;SHT30;43448;52.264;20.644;2023-07-31T05:00:00;26.54;50.72
57624;SHT30;43448;52.264;20.644;2023-07-31T05:10:00;26.64;50.51
57624;SHT30;43448;52.264;20.644;2023-07-31T05:20:00;26.72;50.25
57624;SHT30;43448;52.264;20.644;2023-07-31T05:30:00;26.78;50.10
57624;SHT30;43448;52.264;20.644;2023-07-31T05:40:00;26.85;49.94
57624;SHT30;43448;52.264;20.644;2023-07-31T05:50:01;26.88;49.81
57624;SHT30;43448;52.264;20.644;2023-07-31T06:00:01;26.88;49.73
57624;SHT30;43448;52.264;20.644;2023-07-31T06:10:00;26.91;49.67
57624;SHT30;43448;52.264;20.644;2023-07-31T06:20:00;26.95;49.60
57624;SHT30;43448;52.264;20.644;2023-07-31T06:30:00;26.98;49.55
57624;SHT30;43448;52.264;20.644;2023-07-31T06:40:00;26.98;49.42
57624;SHT30;43448;52.264;20.644;2023-07-31T06:50:00;26.99;49.38
57624;SHT30;43448;52.264;20.644;2023-07-31T07:00:01;27.02;49.37
57624;SHT30;43448;52.264;20.644;2023-07-31T07:10:00;27.06;49.24
57624;SHT30;43448;52.264;20.644;2023-07-31T07:20:00;27.07;49.23
57624;SHT30;43448;52.264;20.644;2023-07-31T07:30:01;27.09;49.21
57624;SHT30;43448;52.264;20.644;2023-07-31T07:40:00;27.09;49.04
57624;SHT30;43448;52.264;20.644;2023-07-31T07:50:00;27.09;49.07
57624;SHT30;43448;52.264;20.644;2023-07-31T08:00:01;27.13;48.96
57624;SHT30;43448;52.264;20.644;2023-07-31T08:10:00;27.16;49.05
57624;SHT30;43448;52.264;20.644;2023-07-31T08:20:00;27.19;49.11
57624;SHT30;43448;52.264;20.644;2023-07-31T08:30:00;27.21;48.97
57624;SHT30;43448;52.264;20.644;2023-07-31T08:40:00;27.25;48.95
57624;SHT30;43448;52.264;20.644;2023-07-31T08:50:01;27.26;48.76
57624;SHT30;43448;52.264;20.644;2023-07-31T09:00:02;27.33;48.65
57624;SHT30;43448;52.264;20.644;2023-07-31T09:10:00;27.33;48.34
57624;SHT30;43448;52.264;20.644;2023-07-31T09:20:13;27.39;48.10
57624;SHT30;43448;52.264;20.644;2023-07-31T09:30:00;27.39;47.82
57624;SHT30;43448;52.264;20.644;2023-07-31T09:40:00;27.43;47.62
57624;SHT30;43448;52.264;20.644;2023-07-31T09:50:00;27.47;47.31
57624;SHT30;43448;52.264;20.644;2023-07-31T10:00:01;27.47;47.03
57624;SHT30;43448;52.264;20.644;2023-07-31T10:10:01;27.49;46.74
57624;SHT30;43448;52.264;20.644;2023-07-31T10:20:02;27.54;46.52
57624;SHT30;43448;52.264;20.644;2023-07-31T10:30:03;27.58;46.32
57624;SHT30;43448;52.264;20.644;2023-07-31T10:40:03;27.61;46.01
57624;SHT30;43448;52.264;20.644;2023-07-31T10:50:17;27.61;45.89
57624;SHT30;43448;52.264;20.644;2023-07-31T11:00:18;27.61;45.70
57624;SHT30;43448;52.264;20.644;2023-07-31T11:10:01;27.65;45.57
57624;SHT30;43448;52.264;20.644;2023-07-31T11:20:00;27.63;45.31
57624;SHT30;43448;52.264;20.644;2023-07-31T11:30:01;27.68;45.19
57624;SHT30;43448;52.264;20.644;2023-07-31T11:40:01;27.70;44.90
57624;SHT30;43448;52.264;20.644;2023-07-31T11:50:01;27.74;44.71
57624;SHT30;43448;52.264;20.644;2023-07-31T12:00:01;27.74;44.70
57624;SHT30;43448;52.264;20.644;2023-07-31T12:10:00;27.74;44.70
57624;SHT30;43448;52.264;20.644;2023-07-31T12:20:00;27.75;44.63
57624;SHT30;43448;52.264;20.644;2023-07-31T12:30:00;27.75;44.67
57624;SHT30;43448;52.264;20.644;2023-07-31T12:40:00;27.79;44.68
57624;SHT30;43448;52.264;20.644;2023-07-31T12:50:00;27.80;44.62
57624;SHT30;43448;52.264;20.644;2023-07-31T13:00:01;27.83;44.61
57624;SHT30;43448;52.264;20.644;2023-07-31T13:10:00;27.84;44.71
57624;SHT30;43448;52.264;20.644;2023-07-31T13:20:00;27.85;44.85
57624;SHT30;43448;52.264;20.644;2023-07-31T13:30:01;27.87;44.95
57624;SHT30;43448;52.264;20.644;2023-07-31T13:40:01;27.85;44.93
57624;SHT30;43448;52.264;20.644;2023-07-31T13:50:00;27.88;45.01
57624;SHT30;43448;52.264;20.644;2023-07-31T14:00:01;27.85;44.83
57624;SHT30;43448;52.264;20.644;2023-07-31T14:10:00;27.87;44.85
57624;SHT30;43448;52.264;20.644;2023-07-31T14:20:01;27.87;44.81
57624;SHT30;43448;52.264;20.644;2023-07-31T14:30:00;27.90;44.77
57624;SHT30;43448;52.264;20.644;2023-07-31T14:40:00;27.87;44.81
57624;SHT30;43448;52.264;20.644;2023-07-31T14:50:00;27.88;44.71
57624;SHT30;43448;52.264;20.644;2023-07-31T15:00:01;27.85;44.57
57624;SHT30;43448;52.264;20.644;2023-07-31T15:10:01;27.87;44.63
57624;SHT30;43448;52.264;20.644;2023-07-31T15:20:00;27.88;44.57
57624;SHT30;43448;52.264;20.644;2023-07-31T15:30:01;27.85;44.36
57624;SHT30;43448;52.264;20.644;2023-07-31T15:40:00;27.81;42.83
57624;SHT30;43448;52.264;20.644;2023-07-31T15:50:00;27.79;43.19
57624;SHT30;43448;52.264;20.644;2023-07-31T16:00:01;27.81;43.62
57624;SHT30;43448;52.264;20.644;2023-07-31T16:10:01;27.75;42.91
57624;SHT30;43448;52.264;20.644;2023-07-31T16:20:00;27.73;43.13
57624;SHT30;43448;52.264;20.644;2023-07-31T16:30:01;27.70;42.81
57624;SHT30;43448;52.264;20.644;2023-07-31T16:40:00;27.70;42.87
57624;SHT30;43448;52.264;20.644;2023-07-31T16:50:00;27.65;42.93
57624;SHT30;43448;52.264;20.644;2023-07-31T17:00:01;27.63;43.42
57624;SHT30;43448;52.264;20.644;2023-07-31T17:10:00;27.60;43.80
57624;SHT30;43448;52.264;20.644;2023-07-31T17:20:00;27.58;43.88
57624;SHT30;43448;52.264;20.644;2023-07-31T17:30:01;27.58;43.97
57624;SHT30;43448;52.264;20.644;2023-07-31T17:40:00;27.49;44.14
57624;SHT30;43448;52.264;20.644;2023-07-31T17:50:00;27.50;44.40
57624;SHT30;43448;52.264;20.644;2023-07-31T18:00:01;27.47;44.61
57624;SHT30;43448;52.264;20.644;2023-07-31T18:10:00;27.46;44.73
57624;SHT30;43448;52.264;20.644;2023-07-31T18:20:00;27.44;44.93
57624;SHT30;43448;52.264;20.644;2023-07-31T18:30:01;27.37;45.22
57624;SHT30;43448;52.264;20.644;2023-07-31T18:40:00;27.36;45.46
57624;SHT30;43448;52.264;20.644;2023-07-31T18:50:00;27.32;45.62
57624;SHT30;43448;52.264;20.644;2023-07-31T19:00:01;27.33;45.99
57624;SHT30;43448;52.264;20.644;2023-07-31T19:10:00;27.30;46.15
57624;SHT30;43448;52.264;20.644;2023-07-31T19:20:00;27.28;46.34
57624;SHT30;43448;52.264;20.644;2023-07-31T19:30:00;27.30;46.46
57624;SHT30;43448;52.264;20.644;2023-07-31T19:40:00;27.25;46.67
57624;SHT30;43448;52.264;20.644;2023-07-31T19:50:00;27.16;47.00
57624;SHT30;43448;52.264;20.644;2023-07-31T20:00:01;27.15;47.27
57624;SHT30;43448;52.264;20.644;2023-07-31T20:10:00;27.13;47.61
57624;SHT30;43448;52.264;20.644;2023-07-31T20:20:00;27.12;47.97
57624;SHT30;43448;52.264;20.644;2023-07-31T20:30:00;27.09;48.36
57624;SHT30;43448;52.264;20.644;2023-07-31T20:40:05;27.03;48.56
57624;SHT30;43448;52.264;20.644;2023-07-31T20:50:00;27.09;48.71
57624;SHT30;43448;52.264;20.644;2023-07-31T21:00:01;27.03;48.63
57624;SHT30;43448;52.264;20.644;2023-07-31T21:10:00;27.05;48.42
57624;SHT30;43448;52.264;20.644;2023-07-31T21:20:01;27.06;48.34
57624;SHT30;43448;52.264;20.644;2023-07-31T21:30:00;27.05;48.17
57624;SHT30;43448;52.264;20.644;2023-07-31T21:40:00;27.07;48.09
57624;SHT30;43448;52.264;20.644;2023-07-31T21:50:00;27.03;48.08
57624;SHT30;43448;52.264;20.644;2023-07-31T22:00:02;27.03;48.01
57624;SHT30;43448;52.264;20.644;2023-07-31T22:10:00;27.01;48.11
57624;SHT30;43448;52.264;20.644;2023-07-31T22:20:00;26.99;48.24
57624;SHT30;43448;52.264;20.644;2023-07-31T22:30:00;26.95;48.42
57624;SHT30;43448;52.264;20.644;2023-07-31T22:40:00;26.98;48.43
57624;SHT30;43448;52.264;20.644;2023-07-31T22:50:00;27.01;48.72
57624;SHT30;43448;52.264;20.644;2023-07-31T23:00:01;27.01;48.86
57624;SHT30;43448;52.264;20.644;2023-07-31T23:10:00;27.06;48.67
57624;SHT30;43448;52.264;20.644;2023-07-31T23:20:00;27.10;48.50
57624;SHT30;43448;52.264;20.644;2023-07-31T23:30:00;27.12;48.32
57624;SHT30;43448;52.264;20.644;2023-07-31T23:40:01;27.07;48.17
57624;SHT30;43448;52.264;20.644;2023-07-31T23:50:00;27.09;48.10
